Time;durP1;ratioP1;P1;durP2;ratioP2;P2;SDS_P1;SDS_P2;PMS_P1;PMS_P2;Temp;Humidity;BMP_temperature;BMP_pressure;BME280_temperature;BME280_humidity;BME280_pressure;Samples;Min_cycle;Max_cycle;Signal;HPM_P1;HPM_P2
2021/12/27 00:02:21;;;;;;;21.48;12.68;;;;;;;;;;5090427;28;20051;-75
2021/12/27 00:04:47;;;;;;;16.00;11.73;;;;;;;;;;5087566;28;20123;-75
2021/12/27 00:07:15;;;;;;;18.92;11.63;;;;;;;;;;5077587;28;20056;-75
2021/12/27 00:09:41;;;;;;;17.05;10.70;;;;;;;;;;5092367;28;20046;-75
2021/12/27 00:12:08;;;;;;;18.35;12.55;;;;;;;;;;5087645;28;20549;-75
2021/12/27 00:14:34;;;;;;;16.52;10.10;;;;;;;;;;5073706;28;20048;-75
2021/12/27 00:17:00;;;;;;;22.77;12.18;;;;;;;;;;5071432;28;20785;-75
2021/12/27 00:19:26;;;;;;;18.85;11.88;;;;;;;;;;5086582;28;20039;-75
2021/12/27 00:21:53;;;;;;;18.08;11.68;;;;;;;;;;5081937;28;20048;-74
2021/12/27 00:24:19;;;;;;;15.70;8.98;;;;;;;;;;5055454;28;20140;-75
2021/12/27 00:26:46;;;;;;;16.05;10.35;;;;;;;;;;5086005;28;20090;-75
2021/12/27 00:29:14;;;;;;;20.40;12.48;;;;;;;;;;5073636;28;20408;-75
2021/12/27 00:31:40;;;;;;;25.05;11.15;;;;;;;;;;5087769;28;20058;-74
2021/12/27 00:34:06;;;;;;;17.08;10.93;;;;;;;;;;5088506;28;20043;-75
2021/12/27 00:36:32;;;;;;;19.83;12.18;;;;;;;;;;5087956;28;20195;-75
2021/12/27 00:38:58;;;;;;;19.20;11.63;;;;;;;;;;5086560;28;20080;-75
2021/12/27 00:41:24;;;;;;;16.88;11.23;;;;;;;;;;5072533;28;20142;-81
2021/12/27 00:43:51;;;;;;;18.48;11.23;;;;;;;;;;5074390;28;20050;-81
2021/12/27 00:46:17;;;;;;;15.88;10.57;;;;;;;;;;5074143;28;20043;-81
2021/12/27 00:48:43;;;;;;;18.60;11.45;;;;;;;;;;5098424;28;20089;-81
2021/12/27 00:51:10;;;;;;;16.95;10.68;;;;;;;;;;5087607;28;20401;-81
2021/12/27 00:53:36;;;;;;;20.13;11.60;;;;;;;;;;5090634;28;20040;-79
2021/12/27 00:56:02;;;;;;;19.63;12.00;;;;;;;;;;5078135;28;20039;-79
2021/12/27 00:58:28;;;;;;;19.08;11.65;;;;;;;;;;5088545;28;20119;-79
2021/12/27 01:00:54;;;;;;;19.23;12.20;;;;;;;;;;5059692;28;20063;-79
2021/12/27 01:03:20;;;;;;;20.92;11.63;;;;;;;;;;5066897;28;20370;-79
2021/12/27 01:05:47;;;;;;;17.00;11.10;;;;;;;;;;5092583;28;20043;-79
2021/12/27 01:08:14;;;;;;;17.75;11.57;;;;;;;;;;5105942;27;20122;-72
2021/12/27 01:13:47;;;;;;;21.15;11.32;;;;;;;;;;5097772;28;20128;-72
2021/12/27 01:16:13;;;;;;;14.95;11.85;;;;;;;;;;5104693;27;20040;-75
2021/12/27 01:18:41;;;;;;;17.35;12.35;;;;;;;;;;5119668;27;20036;-75
2021/12/27 01:21:08;;;;;;;21.38;11.68;;;;;;;;;;5106624;27;20560;-75
2021/12/27 01:23:34;;;;;;;21.40;13.57;;;;;;;;;;5085567;28;20048;-75
2021/12/27 01:26:00;;;;;;;18.35;10.82;;;;;;;;;;5085867;27;20487;-75
2021/12/27 01:28:26;;;;;;;17.92;10.63;;;;;;;;;;5087764;28;20063;-75
2021/12/27 01:30:52;;;;;;;18.08;11.77;;;;;;;;;;5103894;28;20039;-75
2021/12/27 01:33:20;;;;;;;18.20;12.18;;;;;;;;;;5086779;28;20036;-75
2021/12/27 01:35:46;;;;;;;19.08;12.07;;;;;;;;;;5089614;27;20039;-75
2021/12/27 01:38:13;;;;;;;21.30;13.30;;;;;;;;;;5097662;27;20079;-75
2021/12/27 01:40:41;;;;;;;19.13;11.63;;;;;;;;;;5101234;27;20063;-75
2021/12/27 01:43:09;;;;;;;18.92;12.35;;;;;;;;;;5104124;27;20048;-75
2021/12/27 01:45:37;;;;;;;21.05;11.73;;;;;;;;;;5103725;27;20087;-75
2021/12/27 01:48:03;;;;;;;20.13;11.80;;;;;;;;;;5105955;27;20396;-75
2021/12/27 01:50:30;;;;;;;18.13;11.55;;;;;;;;;;5103650;27;20094;-75
2021/12/27 01:52:56;;;;;;;18.85;12.00;;;;;;;;;;5104205;27;20035;-74
2021/12/27 01:55:22;;;;;;;17.67;11.40;;;;;;;;;;5101487;27;20063;-75
2021/12/27 01:57:48;;;;;;;18.77;12.35;;;;;;;;;;5103863;27;20069;-75
2021/12/27 02:00:15;;;;;;;18.60;12.27;;;;;;;;;;5086931;27;20036;-75
2021/12/27 02:02:41;;;;;;;22.58;12.65;;;;;;;;;;5087048;28;20122;-75
2021/12/27 02:05:07;;;;;;;19.92;12.15;;;;;;;;;;5101038;27;20100;-75
2021/12/27 02:07:33;;;;;;;21.70;13.65;;;;;;;;;;5093163;27;20050;-75
2021/12/27 02:10:02;;;;;;;16.70;11.93;;;;;;;;;;5091126;27;20378;-75
2021/12/27 02:12:32;;;;;;;21.73;12.50;;;;;;;;;;5089261;27;20467;-75
2021/12/27 02:14:58;;;;;;;18.73;11.48;;;;;;;;;;5091348;27;20415;-75
2021/12/27 02:17:25;;;;;;;20.38;13.20;;;;;;;;;;5107965;27;20166;-75
2021/12/27 02:19:54;;;;;;;20.15;12.23;;;;;;;;;;5093288;27;20096;-81
2021/12/27 02:22:21;;;;;;;19.30;11.82;;;;;;;;;;5106611;27;20371;-81
2021/12/27 02:24:48;;;;;;;21.25;13.73;;;;;;;;;;5094316;27;20074;-75
2021/12/27 02:27:15;;;;;;;22.73;11.90;;;;;;;;;;5104691;27;20127;-75
2021/12/27 02:29:41;;;;;;;21.15;12.57;;;;;;;;;;5102477;27;20085;-75
2021/12/27 02:32:08;;;;;;;21.65;13.60;;;;;;;;;;5089391;27;20130;-75
2021/12/27 02:34:34;;;;;;;19.17;13.38;;;;;;;;;;5106759;27;20138;-75
2021/12/27 02:37:00;;;;;;;19.80;12.50;;;;;;;;;;5104858;27;20130;-75
2021/12/27 02:39:28;;;;;;;28.13;14.25;;;;;;;;;;5107165;27;20486;-81
2021/12/27 02:41:55;;;;;;;18.88;12.82;;;;;;;;;;5108699;27;20532;-81
2021/12/27 02:44:21;;;;;;;20.90;12.73;;;;;;;;;;5106940;27;20071;-81
2021/12/27 02:46:47;;;;;;;21.75;12.82;;;;;;;;;;5091685;27;20107;-81
2021/12/27 02:49:13;;;;;;;22.00;13.75;;;;;;;;;;5105621;28;20388;-75
2021/12/27 02:51:39;;;;;;;22.85;12.63;;;;;;;;;;5107758;27;20135;-75
2021/12/27 02:54:05;;;;;;;20.23;12.43;;;;;;;;;;5105278;27;20050;-75
2021/12/27 02:56:33;;;;;;;20.10;13.18;;;;;;;;;;5109963;27;20049;-75
2021/12/27 02:58:59;;;;;;;18.95;12.93;;;;;;;;;;5088636;28;20055;-75
2021/12/27 03:01:26;;;;;;;23.45;12.73;;;;;;;;;;5104346;28;20049;-75
2021/12/27 03:03:53;;;;;;;21.92;13.55;;;;;;;;;;5100452;27;20035;-74
2021/12/27 03:06:20;;;;;;;22.55;12.82;;;;;;;;;;5090919;27;20122;-75
2021/12/27 03:08:47;;;;;;;22.52;13.65;;;;;;;;;;5104666;28;20505;-75
2021/12/27 03:11:13;;;;;;;22.02;12.95;;;;;;;;;;5091963;27;20122;-75
2021/12/27 03:13:44;;;;;;;19.60;13.05;;;;;;;;;;5108245;27;20042;-75
2021/12/27 03:16:12;;;;;;;17.08;12.25;;;;;;;;;;5088796;28;20034;-75
2021/12/27 03:18:39;;;;;;;21.58;13.05;;;;;;;;;;5103453;28;20059;-75
2021/12/27 03:21:06;;;;;;;18.83;12.77;;;;;;;;;;5109430;27;20126;-75
2021/12/27 03:23:32;;;;;;;22.38;14.35;;;;;;;;;;5085252;27;20031;-75
2021/12/27 03:25:58;;;;;;;19.70;12.73;;;;;;;;;;5094808;27;20039;-75
2021/12/27 03:28:25;;;;;;;22.13;12.88;;;;;;;;;;5109056;27;20049;-75
2021/12/27 03:30:51;;;;;;;23.45;13.85;;;;;;;;;;5097482;27;20074;-81
2021/12/27 03:33:22;;;;;;;24.23;13.02;;;;;;;;;;5096121;27;20035;-81
2021/12/27 03:35:59;;;;;;;20.02;13.95;;;;;;;;;;5109899;27;20409;-81
2021/12/27 03:38:25;;;;;;;19.33;13.02;;;;;;;;;;5108488;27;20103;-81
2021/12/27 03:40:52;;;;;;;20.70;14.20;;;;;;;;;;5089445;27;20039;-79
2021/12/27 03:43:18;;;;;;;24.52;14.10;;;;;;;;;;5108161;27;20043;-74
2021/12/27 03:45:44;;;;;;;21.52;13.30;;;;;;;;;;5112834;27;20109;-73
2021/12/27 03:48:11;;;;;;;23.67;13.98;;;;;;;;;;5103383;27;20059;-74
2021/12/27 03:50:38;;;;;;;20.98;13.15;;;;;;;;;;5106435;27;20474;-74
2021/12/27 03:53:04;;;;;;;19.95;13.55;;;;;;;;;;5090854;27;20031;-73
2021/12/27 03:55:30;;;;;;;22.08;13.93;;;;;;;;;;5110797;27;20047;-74
2021/12/27 03:58:07;;;;;;;19.65;13.20;;;;;;;;;;5106209;27;20043;-74
2021/12/27 04:00:47;;;;;;;22.58;13.77;;;;;;;;;;5113923;27;20050;-74
2021/12/27 04:03:13;;;;;;;21.17;12.65;;;;;;;;;;5108107;27;20092;-79
2021/12/27 04:05:40;;;;;;;23.48;15.13;;;;;;;;;;5104710;27;20235;-79
2021/12/27 04:08:09;;;;;;;26.13;14.50;;;;;;;;;;5113005;27;20043;-80
2021/12/27 04:10:39;;;;;;;22.02;13.70;;;;;;;;;;5109598;27;20044;-80
2021/12/27 04:13:06;;;;;;;23.33;14.70;;;;;;;;;;5103296;27;20043;-80
2021/12/27 04:15:34;;;;;;;19.70;13.75;;;;;;;;;;5112393;27;20039;-79
2021/12/27 04:18:02;;;;;;;19.70;13.57;;;;;;;;;;5103603;27;20058;-80
2021/12/27 04:20:29;;;;;;;22.20;13.60;;;;;;;;;;5104252;27;20580;-80
2021/12/27 04:22:55;;;;;;;22.13;14.38;;;;;;;;;;5112982;27;20523;-74
2021/12/27 04:25:22;;;;;;;20.10;13.73;;;;;;;;;;5092529;27;20043;-74
2021/12/27 04:27:49;;;;;;;20.08;14.75;;;;;;;;;;5105713;27;20455;-74
2021/12/27 04:30:16;;;;;;;22.88;12.80;;;;;;;;;;5102301;27;20039;-73
2021/12/27 04:32:42;;;;;;;21.27;13.70;;;;;;;;;;5090455;27;20047;-73
2021/12/27 04:35:09;;;;;;;21.15;14.02;;;;;;;;;;5094604;27;20042;-73
2021/12/27 04:37:35;;;;;;;25.25;15.10;;;;;;;;;;5110139;27;20208;-73
2021/12/27 04:40:02;;;;;;;27.67;16.00;;;;;;;;;;5111692;27;20058;-73
2021/12/27 04:42:31;;;;;;;19.90;15.23;;;;;;;;;;5101908;27;20490;-79
2021/12/27 04:44:57;;;;;;;27.02;14.98;;;;;;;;;;5111536;27;20127;-80
2021/12/27 04:47:24;;;;;;;23.20;15.30;;;;;;;;;;5105669;27;20431;-79
2021/12/27 04:49:50;;;;;;;21.63;14.52;;;;;;;;;;5094717;27;20139;-79
2021/12/27 04:52:16;;;;;;;28.25;16.27;;;;;;;;;;5108656;27;20053;-79
2021/12/27 04:54:42;;;;;;;26.30;15.90;;;;;;;;;;5109039;27;20047;-79
2021/12/27 04:57:09;;;;;;;25.95;15.75;;;;;;;;;;5089157;27;20031;-79
2021/12/27 04:59:35;;;;;;;22.85;14.23;;;;;;;;;;5105211;27;20071;-79
2021/12/27 05:02:01;;;;;;;29.88;17.40;;;;;;;;;;5086469;27;20049;-79
2021/12/27 05:04:27;;;;;;;23.65;15.32;;;;;;;;;;5110862;27;20027;-80
2021/12/27 05:06:54;;;;;;;25.00;15.75;;;;;;;;;;5107669;27;20051;-79
2021/12/27 05:09:20;;;;;;;23.90;15.45;;;;;;;;;;5088386;27;20477;-79
2021/12/27 05:11:46;;;;;;;27.08;17.58;;;;;;;;;;5087111;27;20554;-78
2021/12/27 05:14:12;;;;;;;25.15;14.70;;;;;;;;;;5091656;27;20069;-79
2021/12/27 05:16:38;;;;;;;26.35;16.55;;;;;;;;;;5103470;27;20471;-79
2021/12/27 05:19:04;;;;;;;26.58;15.32;;;;;;;;;;5086146;27;20386;-79
2021/12/27 05:21:31;;;;;;;27.15;16.33;;;;;;;;;;5109990;27;20035;-79
2021/12/27 05:23:57;;;;;;;29.58;16.85;;;;;;;;;;5106597;27;20058;-79
2021/12/27 05:26:23;;;;;;;22.73;17.08;;;;;;;;;;5093863;27;20076;-79
2021/12/27 05:28:49;;;;;;;26.90;16.60;;;;;;;;;;5105461;27;20063;-73
2021/12/27 05:31:15;;;;;;;25.23;17.15;;;;;;;;;;5107829;27;20629;-73
2021/12/27 05:33:41;;;;;;;22.10;16.25;;;;;;;;;;5103291;27;20032;-73
2021/12/27 05:36:08;;;;;;;24.02;16.40;;;;;;;;;;5073779;27;20039;-73
2021/12/27 05:38:34;;;;;;;29.98;18.17;;;;;;;;;;5094432;27;20031;-73
2021/12/27 05:41:00;;;;;;;30.42;17.17;;;;;;;;;;5108128;27;20107;-73
2021/12/27 05:43:27;;;;;;;29.58;17.45;;;;;;;;;;5103455;28;20042;-74
2021/12/27 05:45:53;;;;;;;27.27;16.33;;;;;;;;;;5109661;27;20404;-73
2021/12/27 05:48:19;;;;;;;30.48;16.70;;;;;;;;;;5108445;27;20050;-74
2021/12/27 05:50:45;;;;;;;27.17;16.77;;;;;;;;;;5088947;27;20043;-73
2021/12/27 05:53:12;;;;;;;27.17;17.38;;;;;;;;;;5085374;27;20039;-80
2021/12/27 05:55:38;;;;;;;22.38;16.77;;;;;;;;;;5107591;27;20050;-80
2021/12/27 05:58:05;;;;;;;30.45;18.65;;;;;;;;;;5103951;27;20166;-78
2021/12/27 06:00:31;;;;;;;28.38;18.30;;;;;;;;;;5084497;27;20121;-74
2021/12/27 06:02:59;;;;;;;25.88;16.80;;;;;;;;;;5104512;27;20035;-74
2021/12/27 06:05:25;;;;;;;31.27;17.95;;;;;;;;;;5101774;27;20042;-74
2021/12/27 06:07:51;;;;;;;23.77;16.48;;;;;;;;;;5062729;28;20296;-74
2021/12/27 06:10:18;;;;;;;25.10;15.73;;;;;;;;;;5080316;28;20174;-74
2021/12/27 06:12:45;;;;;;;22.40;16.88;;;;;;;;;;5067345;28;20097;-74
2021/12/27 06:15:11;;;;;;;31.63;18.00;;;;;;;;;;5087383;28;20039;-74
2021/12/27 06:17:38;;;;;;;35.65;18.67;;;;;;;;;;5065749;28;20090;-74
2021/12/27 06:20:07;;;;;;;27.02;17.70;;;;;;;;;;5086796;28;20079;-79
2021/12/27 06:22:34;;;;;;;30.55;18.98;;;;;;;;;;5069102;28;20411;-80
2021/12/27 06:25:03;;;;;;;38.53;19.10;;;;;;;;;;5049873;28;20070;-74
2021/12/27 06:27:31;;;;;;;26.45;17.00;;;;;;;;;;5069761;28;20048;-74
2021/12/27 06:29:58;;;;;;;28.08;17.30;;;;;;;;;;5086898;28;20044;-75
2021/12/27 06:32:24;;;;;;;25.77;16.75;;;;;;;;;;5066546;28;20088;-79
2021/12/27 06:34:50;;;;;;;28.15;17.13;;;;;;;;;;5080191;28;20040;-74
2021/12/27 06:37:17;;;;;;;33.88;17.52;;;;;;;;;;5066530;28;20043;-74
2021/12/27 06:39:43;;;;;;;31.50;18.90;;;;;;;;;;5061905;28;20071;-74
2021/12/27 06:42:09;;;;;;;36.03;19.83;;;;;;;;;;5035640;28;20349;-74
2021/12/27 06:44:35;;;;;;;37.65;20.77;;;;;;;;;;5078025;28;20101;-79
2021/12/27 06:47:02;;;;;;;33.67;20.25;;;;;;;;;;5081186;28;20044;-79
2021/12/27 06:49:28;;;;;;;27.80;17.60;;;;;;;;;;5086396;28;20582;-79
2021/12/27 06:51:55;;;;;;;34.65;19.08;;;;;;;;;;5079014;28;20476;-79
2021/12/27 06:54:21;;;;;;;29.60;18.23;;;;;;;;;;5074037;28;20067;-80
2021/12/27 06:56:47;;;;;;;36.13;19.67;;;;;;;;;;5077475;28;20052;-80
2021/12/27 06:59:13;;;;;;;42.83;18.33;;;;;;;;;;5075436;28;20043;-80
2021/12/27 07:01:39;;;;;;;31.02;18.65;;;;;;;;;;5076666;28;20389;-79
2021/12/27 07:04:05;;;;;;;32.50;18.08;;;;;;;;;;5064093;28;20040;-79
2021/12/27 07:06:33;;;;;;;28.33;17.80;;;;;;;;;;5082929;28;20044;-79
2021/12/27 07:08:59;;;;;;;30.02;18.00;;;;;;;;;;5118214;27;20122;-79
2021/12/27 07:11:25;;;;;;;32.95;21.17;;;;;;;;;;5084146;28;20032;-79
2021/12/27 07:13:51;;;;;;;34.08;20.15;;;;;;;;;;5068344;28;20124;-74
2021/12/27 07:16:17;;;;;;;35.13;21.15;;;;;;;;;;5104647;28;20327;-74
2021/12/27 07:18:43;;;;;;;37.55;19.65;;;;;;;;;;5099249;28;20479;-79
2021/12/27 07:21:09;;;;;;;38.03;20.65;;;;;;;;;;5087764;28;20040;-73
2021/12/27 07:23:37;;;;;;;32.08;21.65;;;;;;;;;;5100677;28;20541;-81
2021/12/27 07:26:04;;;;;;;36.47;20.00;;;;;;;;;;5088428;28;20043;-80
2021/12/27 07:28:30;;;;;;;39.28;22.58;;;;;;;;;;5101926;28;20372;-80
2021/12/27 07:30:56;;;;;;;40.70;20.95;;;;;;;;;;5097485;28;20093;-80
2021/12/27 07:33:22;;;;;;;33.90;20.80;;;;;;;;;;5097590;28;20350;-80
2021/12/27 07:35:48;;;;;;;35.85;22.05;;;;;;;;;;5096726;28;20039;-80
2021/12/27 07:38:14;;;;;;;40.10;20.88;;;;;;;;;;5082599;28;20495;-80
2021/12/27 07:40:41;;;;;;;36.40;22.08;;;;;;;;;;5100389;28;20507;-80
2021/12/27 07:43:07;;;;;;;33.13;21.38;;;;;;;;;;5103729;28;20038;-74
2021/12/27 07:45:33;;;;;;;44.45;22.20;;;;;;;;;;5072641;28;20047;-74
2021/12/27 07:47:59;;;;;;;37.30;20.58;;;;;;;;;;5097989;28;20046;-74
2021/12/27 07:50:28;;;;;;;37.50;22.63;;;;;;;;;;5082363;28;20089;-82
2021/12/27 07:52:55;;;;;;;51.33;23.45;;;;;;;;;;5104741;28;20059;-75
2021/12/27 07:55:21;;;;;;;35.67;20.85;;;;;;;;;;5087070;28;20027;-73
2021/12/27 07:57:47;;;;;;;44.83;23.08;;;;;;;;;;5099283;28;20051;-73
2021/12/27 08:00:14;;;;;;;43.08;25.27;;;;;;;;;;5088549;28;20054;-73
2021/12/27 08:02:40;;;;;;;48.67;25.23;;;;;;;;;;5080026;28;20088;-73
2021/12/27 08:05:06;;;;;;;45.08;22.67;;;;;;;;;;5105230;28;20040;-78
2021/12/27 08:07:33;;;;;;;47.30;24.33;;;;;;;;;;5087905;28;20613;-73
2021/12/27 08:09:59;;;;;;;41.80;23.35;;;;;;;;;;5088015;28;20036;-72
2021/12/27 08:12:26;;;;;;;49.47;24.52;;;;;;;;;;5110251;27;20037;-73
2021/12/27 08:14:52;;;;;;;38.17;21.67;;;;;;;;;;5092586;27;20424;-74
2021/12/27 08:17:18;;;;;;;43.40;23.83;;;;;;;;;;5109501;27;20042;-74
2021/12/27 08:19:45;;;;;;;40.08;23.35;;;;;;;;;;5097540;27;20036;-74
2021/12/27 08:22:11;;;;;;;50.00;24.33;;;;;;;;;;5087338;28;20046;-74
2021/12/27 08:24:37;;;;;;;51.03;23.40;;;;;;;;;;5107190;27;20533;-74
2021/12/27 08:27:04;;;;;;;38.78;25.42;;;;;;;;;;5089527;28;20032;-74
2021/12/27 08:29:30;;;;;;;49.70;24.27;;;;;;;;;;5103222;27;20456;-74
2021/12/27 08:31:57;;;;;;;42.45;23.48;;;;;;;;;;5085877;27;20040;-74
2021/12/27 08:34:23;;;;;;;37.38;22.60;;;;;;;;;;5084910;28;20046;-80
2021/12/27 08:36:49;;;;;;;50.92;24.60;;;;;;;;;;5104616;27;20495;-80
2021/12/27 08:39:16;;;;;;;50.70;26.60;;;;;;;;;;5109245;27;20130;-79
2021/12/27 08:41:43;;;;;;;57.15;24.98;;;;;;;;;;5103135;27;20046;-79
2021/12/27 08:44:09;;;;;;;46.08;25.08;;;;;;;;;;5084375;28;20066;-79
2021/12/27 08:46:35;;;;;;;60.25;28.08;;;;;;;;;;5071849;27;20035;-79
2021/12/27 08:49:03;;;;;;;52.75;27.08;;;;;;;;;;5104838;27;20313;-79
2021/12/27 08:51:30;;;;;;;59.70;27.42;;;;;;;;;;5101152;27;20434;-79
2021/12/27 08:53:56;;;;;;;50.45;26.08;;;;;;;;;;5104701;27;20126;-80
2021/12/27 08:56:23;;;;;;;43.97;26.58;;;;;;;;;;5104542;27;20082;-78
2021/12/27 08:58:49;;;;;;;49.47;25.80;;;;;;;;;;5083584;28;20036;-78
2021/12/27 09:01:16;;;;;;;56.78;27.17;;;;;;;;;;5105611;27;20063;-73
2021/12/27 09:03:42;;;;;;;50.38;27.80;;;;;;;;;;5100723;27;20038;-73
2021/12/27 09:06:09;;;;;;;41.25;21.95;;;;;;;;;;5082543;27;20117;-73
2021/12/27 09:08:35;;;;;;;65.38;30.70;;;;;;;;;;5104697;27;20483;-73
2021/12/27 09:11:01;;;;;;;50.10;24.98;;;;;;;;;;5122182;27;20050;-78
2021/12/27 09:13:28;;;;;;;43.90;26.60;;;;;;;;;;5074966;27;20428;-78
2021/12/27 09:15:54;;;;;;;51.97;25.83;;;;;;;;;;5093174;27;20359;-79
2021/12/27 09:18:20;;;;;;;47.30;25.75;;;;;;;;;;5106646;27;20111;-78
2021/12/27 09:20:46;;;;;;;53.97;27.90;;;;;;;;;;5094417;27;20531;-78
2021/12/27 09:23:13;;;;;;;47.90;27.35;;;;;;;;;;5109410;27;20035;-78
2021/12/27 09:25:39;;;;;;;52.42;24.42;;;;;;;;;;5107615;27;20047;-78
2021/12/27 09:28:05;;;;;;;46.83;26.30;;;;;;;;;;5092782;27;20119;-78
2021/12/27 09:30:31;;;;;;;57.60;28.55;;;;;;;;;;5089461;27;20038;-78
2021/12/27 09:33:00;;;;;;;49.33;25.20;;;;;;;;;;5098786;27;20035;-78
2021/12/27 09:35:27;;;;;;;56.83;29.25;;;;;;;;;;5074397;27;20031;-79
2021/12/27 09:37:53;;;;;;;55.53;28.63;;;;;;;;;;5107916;27;20471;-80
2021/12/27 09:40:19;;;;;;;52.40;27.95;;;;;;;;;;5106285;27;20427;-79
2021/12/27 09:42:45;;;;;;;53.15;26.38;;;;;;;;;;5105649;27;20047;-75
2021/12/27 09:45:12;;;;;;;46.65;26.85;;;;;;;;;;5103399;27;20450;-72
2021/12/27 09:47:38;;;;;;;53.13;26.02;;;;;;;;;;5074946;27;20075;-72
2021/12/27 09:50:07;;;;;;;40.22;25.17;;;;;;;;;;5107988;27;20054;-73
2021/12/27 09:52:33;;;;;;;42.38;22.17;;;;;;;;;;5107519;27;20363;-73
2021/12/27 09:55:03;;;;;;;49.50;25.38;;;;;;;;;;5110788;27;20046;-79
2021/12/27 09:57:30;;;;;;;44.10;22.23;;;;;;;;;;5090940;27;20050;-72
2021/12/27 09:59:56;;;;;;;47.45;24.63;;;;;;;;;;5087489;27;20405;-73
2021/12/27 10:02:24;;;;;;;35.83;21.48;;;;;;;;;;5099821;27;20031;-73
2021/12/27 10:04:50;;;;;;;44.15;23.02;;;;;;;;;;5102651;27;20040;-73
2021/12/27 10:07:23;;;;;;;46.17;24.80;;;;;;;;;;5088687;27;20048;-74
2021/12/27 10:09:59;;;;;;;40.33;22.08;;;;;;;;;;5100490;27;20043;-80
2021/12/27 10:12:27;;;;;;;42.63;22.10;;;;;;;;;;5095288;27;20047;-80
2021/12/27 10:14:57;;;;;;;49.25;25.38;;;;;;;;;;5074265;27;20447;-85
2021/12/27 10:17:23;;;;;;;48.47;23.48;;;;;;;;;;5086362;27;20297;-85
2021/12/27 10:19:50;;;;;;;56.60;25.48;;;;;;;;;;5088632;27;20031;-82
2021/12/27 10:22:16;;;;;;;39.78;23.50;;;;;;;;;;5074839;27;20128;-85
2021/12/27 10:24:43;;;;;;;47.22;25.83;;;;;;;;;;5072800;27;20039;-84
2021/12/27 10:27:10;;;;;;;42.17;24.50;;;;;;;;;;5093522;27;20512;-84
2021/12/27 10:29:37;;;;;;;50.42;26.48;;;;;;;;;;5121818;27;20114;-84
2021/12/27 10:32:05;;;;;;;56.80;28.67;;;;;;;;;;5089684;27;20042;-85
2021/12/27 10:34:35;;;;;;;46.42;28.85;;;;;;;;;;5115036;27;20072;-83
2021/12/27 10:37:07;;;;;;;53.75;29.40;;;;;;;;;;5111547;27;20327;-83
2021/12/27 10:39:45;;;;;;;54.22;28.55;;;;;;;;;;5124551;27;20049;-83
2021/12/27 10:42:12;;;;;;;55.08;30.83;;;;;;;;;;5097444;27;20121;-83
2021/12/27 10:44:41;;;;;;;48.85;26.95;;;;;;;;;;5107249;27;20042;-79
2021/12/27 10:47:26;;;;;;;51.45;26.05;;;;;;;;;;5092768;27;20040;-79
2021/12/27 10:49:53;;;;;;;48.60;27.98;;;;;;;;;;5109516;27;20096;-82
2021/12/27 10:52:20;;;;;;;38.38;23.08;;;;;;;;;;5107246;27;20031;-79
2021/12/27 10:54:46;;;;;;;44.97;24.65;;;;;;;;;;5093268;27;20119;-79
2021/12/27 10:57:14;;;;;;;43.40;23.30;;;;;;;;;;5077053;28;20082;-79
2021/12/27 10:59:40;;;;;;;57.90;26.77;;;;;;;;;;5105450;27;20471;-79
2021/12/27 11:02:16;;;;;;;48.53;23.67;;;;;;;;;;5118039;27;20039;-82
2021/12/27 11:04:43;;;;;;;48.30;24.05;;;;;;;;;;5108287;28;20365;-83
2021/12/27 11:07:09;;;;;;;51.10;24.35;;;;;;;;;;5088747;27;20047;-83
2021/12/27 11:09:35;;;;;;;46.53;22.88;;;;;;;;;;5106951;27;20436;-82
2021/12/27 11:12:02;;;;;;;42.42;20.65;;;;;;;;;;5111281;28;20038;-82
2021/12/27 11:14:28;;;;;;;53.42;23.65;;;;;;;;;;5106961;27;20336;-82
2021/12/27 11:16:57;;;;;;;42.75;23.00;;;;;;;;;;5093979;28;20047;-81
2021/12/27 11:19:23;;;;;;;49.83;24.10;;;;;;;;;;5095050;28;20062;-81
2021/12/27 11:21:50;;;;;;;47.88;23.63;;;;;;;;;;5085000;28;20035;-82
2021/12/27 11:24:16;;;;;;;55.45;26.70;;;;;;;;;;5076737;28;20047;-81
2021/12/27 11:26:43;;;;;;;46.13;25.08;;;;;;;;;;5088921;28;20368;-81
2021/12/27 11:29:14;;;;;;;53.67;23.70;;;;;;;;;;5075767;28;20671;-87
2021/12/27 11:31:43;;;;;;;43.92;22.98;;;;;;;;;;5072314;28;20046;-82
2021/12/27 11:34:14;;;;;;;45.80;24.55;;;;;;;;;;5088593;28;20051;-84
2021/12/27 11:36:41;;;;;;;43.88;23.00;;;;;;;;;;5087312;28;20422;-82
2021/12/27 11:39:17;;;;;;;46.83;23.73;;;;;;;;;;5083965;28;20070;-79
2021/12/27 11:41:43;;;;;;;58.72;29.23;;;;;;;;;;5089190;27;20039;-78
2021/12/27 11:44:12;;;;;;;53.15;25.50;;;;;;;;;;5113427;27;20055;-78
2021/12/27 11:46:47;;;;;;;50.53;26.67;;;;;;;;;;5110814;27;20451;-78
2021/12/27 11:49:14;;;;;;;53.13;27.42;;;;;;;;;;5108505;27;20487;-78
2021/12/27 11:51:40;;;;;;;51.35;27.35;;;;;;;;;;5101644;27;20077;-80
2021/12/27 11:54:26;;;;;;;52.97;26.92;;;;;;;;;;5123458;27;20102;-79
2021/12/27 11:56:52;;;;;;;46.58;24.80;;;;;;;;;;5116834;27;20035;-79
2021/12/27 11:59:37;;;;;;;55.78;28.05;;;;;;;;;;5119414;27;20035;-80
2021/12/27 12:02:14;;;;;;;47.92;25.05;;;;;;;;;;5114292;27;20054;-80
2021/12/27 12:04:45;;;;;;;46.10;27.48;;;;;;;;;;5105459;27;20048;-80
2021/12/27 12:07:31;;;;;;;58.03;28.63;;;;;;;;;;5098987;27;20161;-80
2021/12/27 12:09:58;;;;;;;54.72;26.95;;;;;;;;;;5097907;27;20044;-80
2021/12/27 12:12:28;;;;;;;57.28;27.40;;;;;;;;;;5110917;27;20034;-80
2021/12/27 12:14:56;;;;;;;55.83;27.13;;;;;;;;;;5073671;27;20047;-80
2021/12/27 12:17:40;;;;;;;60.40;27.85;;;;;;;;;;5105154;27;20050;-80
2021/12/27 12:20:26;;;;;;;60.08;28.77;;;;;;;;;;5113266;27;20522;-80
2021/12/27 12:22:59;;;;;;;56.47;27.27;;;;;;;;;;5110888;27;20491;-81
2021/12/27 12:25:25;;;;;;;;;;;;;;;;;;5098604;27;20038;-75
2021/12/27 12:27:56;;;;;;;49.20;25.90;;;;;;;;;;5102420;27;20013;-76
2021/12/27 12:30:25;;;;;;;57.35;28.23;;;;;;;;;;5108461;27;20517;-81
2021/12/27 12:32:58;;;;;;;60.95;28.13;;;;;;;;;;5078108;27;20043;-80
2021/12/27 12:35:45;;;;;;;60.95;27.65;;;;;;;;;;5102095;27;20119;-79
2021/12/27 12:38:29;;;;;;;59.17;28.70;;;;;;;;;;5109530;27;20116;-81
2021/12/27 12:41:17;;;;;;;63.42;30.25;;;;;;;;;;5094187;27;20046;-80
2021/12/27 12:43:45;;;;;;;65.45;30.08;;;;;;;;;;5092968;27;20039;-84
2021/12/27 12:46:14;;;;;;;49.75;26.63;;;;;;;;;;5087624;27;20043;-84
2021/12/27 12:48:40;;;;;;;67.03;29.35;;;;;;;;;;5095243;27;20050;-85
2021/12/27 12:51:06;;;;;;;80.15;30.42;;;;;;;;;;5092084;27;20038;-80
2021/12/27 12:53:34;;;;;;;95.88;34.70;;;;;;;;;;5106653;27;20067;-79
2021/12/27 12:56:07;;;;;;;85.00;32.42;;;;;;;;;;5102534;27;20045;-81
2021/12/27 12:58:35;;;;;;;72.32;28.52;;;;;;;;;;5095375;27;20515;-76
2021/12/27 13:01:10;;;;;;;63.05;28.95;;;;;;;;;;5103432;27;20142;-75
2021/12/27 13:03:37;;;;;;;63.97;30.50;;;;;;;;;;5101434;27;20066;-76
2021/12/27 13:06:04;;;;;;;47.85;26.42;;;;;;;;;;5102904;27;20046;-81
2021/12/27 13:08:31;;;;;;;76.80;30.45;;;;;;;;;;5095226;27;20092;-81
2021/12/27 13:11:02;;;;;;;67.35;27.92;;;;;;;;;;5093091;27;20114;-78
2021/12/27 13:13:29;;;;;;;60.88;30.33;;;;;;;;;;5083778;28;20039;-75
2021/12/27 13:16:00;;;;;;;60.95;29.95;;;;;;;;;;5083263;27;20092;-74
2021/12/27 13:18:29;;;;;;;84.10;34.75;;;;;;;;;;5082091;27;20035;-75
2021/12/27 13:20:56;;;;;;;82.88;34.85;;;;;;;;;;5101760;27;20066;-83
2021/12/27 13:23:27;;;;;;;74.10;32.00;;;;;;;;;;5073372;27;20039;-88
2021/12/27 13:25:57;;;;;;;63.67;31.40;;;;;;;;;;5081342;27;20035;-88
2021/12/27 13:28:25;;;;;;;66.80;31.30;;;;;;;;;;5079257;27;20354;-87
2021/12/27 13:30:51;;;;;;;71.60;28.25;;;;;;;;;;5079256;27;20114;-92
2021/12/27 13:33:18;;;;;;;71.47;33.53;;;;;;;;;;5093445;27;20027;-88
2021/12/27 13:35:45;;;;;;;62.90;30.65;;;;;;;;;;5080816;27;20042;-92
2021/12/27 13:38:16;;;;;;;67.35;30.30;;;;;;;;;;5075309;27;20395;-77
2021/12/27 13:40:50;;;;;;;57.42;29.83;;;;;;;;;;5086615;27;20454;-82
2021/12/27 13:43:17;;;;;;;113.22;36.85;;;;;;;;;;5067685;27;20039;-81
2021/12/27 13:45:45;;;;;;;70.60;29.60;;;;;;;;;;5086588;27;20115;-82
2021/12/27 13:48:12;;;;;;;59.17;29.52;;;;;;;;;;5105638;27;20044;-81
2021/12/27 13:50:39;;;;;;;70.13;33.63;;;;;;;;;;5091033;27;20039;-83
2021/12/27 13:53:17;;;;;;;64.50;32.38;;;;;;;;;;5089136;27;20528;-83
2021/12/27 13:55:44;;;;;;;58.78;29.88;;;;;;;;;;5098284;27;20044;-79
2021/12/27 13:58:13;;;;;;;58.38;29.70;;;;;;;;;;5113703;27;20042;-81
2021/12/27 14:00:39;;;;;;;58.75;27.73;;;;;;;;;;5076038;27;20039;-80
2021/12/27 14:03:05;;;;;;;65.80;33.08;;;;;;;;;;5104957;27;20043;-80
2021/12/27 14:05:37;;;;;;;71.72;34.60;;;;;;;;;;5106179;27;20375;-79
2021/12/27 14:08:10;;;;;;;73.38;34.05;;;;;;;;;;5091715;27;20115;-79
2021/12/27 14:10:36;;;;;;;59.67;31.15;;;;;;;;;;5093984;27;20050;-79
2021/12/27 14:13:03;;;;;;;80.60;30.85;;;;;;;;;;5085807;27;20043;-79
2021/12/27 14:15:30;;;;;;;71.50;30.17;;;;;;;;;;5086153;27;20030;-80
2021/12/27 14:18:10;;;;;;;59.47;29.52;;;;;;;;;;5101049;27;21380;-79
2021/12/27 14:20:36;;;;;;;63.05;30.58;;;;;;;;;;5104075;27;20130;-79
2021/12/27 14:23:07;;;;;;;54.03;27.83;;;;;;;;;;5120656;27;20075;-79
2021/12/27 14:25:33;;;;;;;54.03;27.08;;;;;;;;;;5104126;27;20066;-80